Time;durP1;ratioP1;P1;durP2;ratioP2;P2;SDS_P1;SDS_P2;PMS_P1;PMS_P2;Temp;Humidity;BMP_temperature;BMP_pressure;BME280_temperature;BME280_humidity;BME280_pressure;Samples;Min_cycle;Max_cycle;Signal;HPM_P1;HPM_P2
2023/03/06 00:00:58;;;;;;;0.10;0.10;;;1.60;99.90;230.40;231737.00;;;;5029730;28;20693;-73
2023/03/06 00:03:27;;;;;;;0.10;0.10;;;1.70;99.90;230.40;231737.00;;;;5026792;28;20270;-73
2023/03/06 00:05:57;;;;;;;0.10;0.10;;;1.70;99.90;230.40;231737.00;;;;5031690;28;20211;-73
2023/03/06 00:08:28;;;;;;;0.10;0.10;;;1.70;99.90;230.40;231737.00;;;;5022886;28;20218;-73
2023/03/06 00:10:59;;;;;;;0.10;0.10;;;1.70;99.90;230.40;231737.00;;;;5024618;28;20220;-73
2023/03/06 00:13:29;;;;;;;0.10;0.10;;;1.70;99.90;230.40;231737.00;;;;5022530;28;20191;-73
2023/03/06 00:16:00;;;;;;;0.10;0.10;;;1.70;99.90;230.40;231737.00;;;;5019600;28;20242;-73
2023/03/06 00:18:28;;;;;;;0.10;0.10;;;1.70;99.90;230.40;231737.00;;;;5029137;28;20198;-73
2023/03/06 00:20:56;;;;;;;0.10;0.10;;;1.60;99.90;230.40;231737.00;;;;5022607;28;20255;-72
2023/03/06 00:23:24;;;;;;;0.10;0.10;;;1.60;99.90;230.40;231737.00;;;;5022263;28;20665;-73
2023/03/06 00:25:52;;;;;;;0.10;0.10;;;1.60;99.90;230.40;231737.00;;;;5022005;28;20203;-71
2023/03/06 00:28:22;;;;;;;0.10;0.10;;;1.70;99.90;230.40;231737.00;;;;5019076;28;20192;-71
2023/03/06 00:30:50;;;;;;;0.10;0.10;;;1.60;99.90;230.40;231737.00;;;;5018878;28;20227;-72
2023/03/06 00:33:18;;;;;;;0.10;0.10;;;1.60;99.90;230.40;231737.00;;;;5018397;28;20282;-72
2023/03/06 00:35:46;;;;;;;0.10;0.10;;;1.60;99.90;230.40;231737.00;;;;5021793;28;20612;-71
2023/03/06 00:38:14;;;;;;;0.10;0.10;;;1.50;99.90;230.40;231737.00;;;;5016475;28;20213;-72
2023/03/06 00:40:42;;;;;;;0.10;0.10;;;1.40;99.90;230.40;231737.00;;;;5025737;28;20231;-72
2023/03/06 00:43:10;;;;;;;0.10;0.10;;;1.40;99.90;230.40;231737.00;;;;5018616;28;20206;-72
2023/03/06 00:45:40;;;;;;;0.10;0.10;;;1.40;99.90;230.40;231737.00;;;;5025987;28;20261;-72
2023/03/06 00:48:08;;;;;;;0.10;0.10;;;1.30;99.90;230.40;231737.00;;;;5019223;28;20214;-72
2023/03/06 00:50:36;;;;;;;0.10;0.10;;;1.40;99.90;230.40;231737.00;;;;5046131;23;20246;-75
2023/03/06 00:53:04;;;;;;;0.10;0.10;;;1.40;99.90;230.40;231737.00;;;;5036233;28;20203;-76
2023/03/06 00:55:32;;;;;;;0.10;0.10;;;1.40;99.90;230.40;231737.00;;;;5035838;28;20208;-76
2023/03/06 00:58:00;;;;;;;0.10;0.10;;;1.40;99.90;230.40;231737.00;;;;5026518;28;20203;-76
2023/03/06 01:00:28;;;;;;;0.10;0.10;;;1.40;99.90;230.40;231737.00;;;;5021690;28;20266;-75
2023/03/06 01:02:58;;;;;;;0.10;0.10;;;1.50;99.90;230.40;231737.00;;;;5021919;28;20203;-75
2023/03/06 01:05:26;;;;;;;0.10;0.10;;;1.50;99.90;230.40;231737.00;;;;5026515;28;20211;-76
2023/03/06 01:07:54;;;;;;;0.10;0.10;;;1.50;99.90;230.40;231737.00;;;;5036528;28;20201;-75
2023/03/06 01:10:22;;;;;;;0.10;0.10;;;1.50;99.90;230.40;231737.00;;;;5014780;28;20618;-75
2023/03/06 01:12:50;;;;;;;0.10;0.10;;;1.60;99.90;230.40;231737.00;;;;5011869;28;20208;-74
2023/03/06 01:15:18;;;;;;;0.10;0.10;;;1.60;99.90;230.40;231737.00;;;;5013272;28;20620;-74
2023/03/06 01:17:47;;;;;;;0.10;0.10;;;1.60;99.90;230.40;231737.00;;;;5016219;28;20250;-74
2023/03/06 01:20:18;;;;;;;0.10;0.10;;;1.60;99.90;230.40;231737.00;;;;5006552;28;20512;-75
2023/03/06 01:22:46;;;;;;;0.10;0.10;;;1.60;99.90;230.40;231737.00;;;;5018381;28;20199;-74
2023/03/06 01:25:14;;;;;;;0.10;0.10;;;1.60;99.90;230.40;231737.00;;;;5015385;28;20192;-74
2023/03/06 01:27:43;;;;;;;0.10;0.10;;;1.60;99.90;230.40;231737.00;;;;5009445;28;20189;-74
2023/03/06 01:30:12;;;;;;;0.10;0.10;;;1.60;99.90;230.40;231737.00;;;;5021932;28;20226;-75
2023/03/06 01:32:40;;;;;;;0.10;0.10;;;1.60;99.90;230.40;231737.00;;;;5022755;28;20238;-74
2023/03/06 01:35:10;;;;;;;0.10;0.10;;;1.60;99.90;230.40;231737.00;;;;5020046;28;20270;-74
2023/03/06 01:37:39;;;;;;;0.10;0.10;;;1.60;99.90;230.40;231737.00;;;;5010305;28;20215;-74
2023/03/06 01:40:12;;;;;;;0.10;0.10;;;1.60;99.90;230.40;231737.00;;;;5012851;28;20280;-74
2023/03/06 01:42:40;;;;;;;0.10;0.10;;;1.60;99.90;230.40;231737.00;;;;5008599;28;20216;-74
2023/03/06 01:46:18;;;;;;;0.10;0.10;;;1.70;99.90;230.40;231737.00;;;;5019538;28;20242;-74
2023/03/06 01:48:49;;;;;;;0.10;0.10;;;1.70;99.90;230.40;231737.00;;;;5012188;28;20295;-74
2023/03/06 01:51:18;;;;;;;0.20;0.20;;;1.70;99.90;230.40;231737.00;;;;5011596;28;20235;-75
2023/03/06 01:53:50;;;;;;;0.10;0.10;;;1.80;99.90;230.40;231737.00;;;;5010120;28;20323;-76
2023/03/06 01:56:20;;;;;;;0.10;0.10;;;1.80;99.90;230.40;231737.00;;;;5003345;28;20206;-75
2023/03/06 01:58:50;;;;;;;0.08;0.08;;;1.90;99.90;230.40;231737.00;;;;5016793;28;20192;-75
2023/03/06 02:01:19;;;;;;;0.10;0.10;;;1.90;99.90;230.40;231737.00;;;;5027523;28;20224;-75
2023/03/06 02:03:49;;;;;;;0.10;0.10;;;2.00;99.90;230.40;231737.00;;;;5013613;28;20219;-75
2023/03/06 02:06:20;;;;;;;0.10;0.10;;;2.00;99.90;230.40;231737.00;;;;5008693;28;20215;-74
2023/03/06 02:08:52;;;;;;;0.10;0.10;;;2.00;99.90;230.40;231737.00;;;;5016951;28;20218;-74
2023/03/06 02:11:24;;;;;;;0.10;0.10;;;1.90;99.90;230.40;231737.00;;;;5035417;28;20281;-74
2023/03/06 02:13:54;;;;;;;0.10;0.10;;;1.90;99.90;230.40;231737.00;;;;5037823;28;20231;-75
2023/03/06 02:16:28;;;;;;;0.10;0.10;;;2.00;99.90;230.40;231737.00;;;;5022927;28;20250;-75
2023/03/06 02:19:00;;;;;;;0.10;0.10;;;2.00;99.90;230.40;231737.00;;;;5014946;28;20702;-75
2023/03/06 02:21:34;;;;;;;0.10;0.10;;;2.00;99.90;230.40;231737.00;;;;5035776;28;20226;-75
2023/03/06 02:24:21;;;;;;;0.10;0.10;;;1.90;99.90;230.40;231737.00;;;;5011335;28;20469;-74
2023/03/06 02:26:52;;;;;;;0.10;0.10;;;1.90;99.90;230.40;231737.00;;;;5019065;28;20258;-74
2023/03/06 02:29:26;;;;;;;0.10;0.10;;;1.90;99.90;230.40;231737.00;;;;5037688;28;20287;-74
2023/03/06 02:31:56;;;;;;;0.10;0.10;;;1.90;99.90;230.40;231737.00;;;;5026329;28;20214;-74
2023/03/06 02:34:51;;;;;;;0.10;0.10;;;1.90;99.90;230.40;231737.00;;;;5010626;28;20208;-74
2023/03/06 02:37:21;;;;;;;0.10;0.10;;;1.90;99.90;230.40;231737.00;;;;5008445;28;20200;-74
2023/03/06 02:39:58;;;;;;;0.10;0.10;;;1.90;99.90;230.40;231737.00;;;;5024962;28;20276;-74
2023/03/06 02:42:28;;;;;;;0.10;0.10;;;1.90;99.90;230.40;231737.00;;;;5023618;28;20226;-74
2023/03/06 02:45:01;;;;;;;0.10;0.10;;;1.90;99.90;230.40;231737.00;;;;5019881;28;20207;-74
2023/03/06 02:47:29;;;;;;;0.13;0.13;;;1.90;99.90;230.40;231737.00;;;;5011247;28;20598;-75
2023/03/06 02:49:57;;;;;;;0.10;0.10;;;2.00;99.90;230.40;231737.00;;;;5009307;28;20270;-74
2023/03/06 02:52:25;;;;;;;0.10;0.10;;;2.00;99.90;230.40;231737.00;;;;5010754;28;20203;-75
2023/03/06 02:54:52;;;;;;;0.10;0.10;;;2.00;99.90;230.40;231737.00;;;;5010297;28;20238;-74
2023/03/06 02:57:21;;;;;;;0.10;0.10;;;2.00;99.90;230.40;231737.00;;;;5012637;28;20570;-73
2023/03/06 02:59:50;;;;;;;0.10;0.10;;;2.00;99.90;230.40;231737.00;;;;5008951;28;20238;-75
2023/03/06 03:02:18;;;;;;;0.10;0.10;;;2.00;99.90;230.40;231737.00;;;;5018676;28;20310;-74
2023/03/06 03:04:46;;;;;;;0.10;0.10;;;2.00;99.90;230.40;231737.00;;;;5011611;28;20219;-74
2023/03/06 03:07:15;;;;;;;0.10;0.10;;;1.90;99.90;230.40;231737.00;;;;5004167;28;20194;-74
2023/03/06 03:09:43;;;;;;;0.10;0.10;;;1.90;99.90;230.40;231737.00;;;;5035775;28;20555;-74
2023/03/06 03:12:12;;;;;;;0.10;0.10;;;1.90;99.90;230.40;231737.00;;;;5008853;28;20226;-75
2023/03/06 03:14:40;;;;;;;0.10;0.10;;;1.90;99.90;230.40;231737.00;;;;5020073;28;20200;-75
2023/03/06 03:17:10;;;;;;;0.10;0.10;;;1.90;99.90;230.40;231737.00;;;;5018696;28;20226;-75
2023/03/06 03:19:38;;;;;;;0.10;0.10;;;1.90;99.90;230.40;231737.00;;;;5020004;28;20196;-75
2023/03/06 03:22:07;;;;;;;0.10;0.10;;;1.90;99.90;230.40;231737.00;;;;5010201;28;20247;-75
2023/03/06 03:24:35;;;;;;;0.10;0.10;;;1.90;99.90;230.40;231737.00;;;;5011640;28;20199;-75
2023/03/06 03:27:04;;;;;;;0.10;0.10;;;1.90;99.90;230.40;231737.00;;;;5009561;28;20221;-75
2023/03/06 03:29:32;;;;;;;0.10;0.10;;;1.90;99.90;230.40;231737.00;;;;5023574;28;20192;-74
2023/03/06 03:32:00;;;;;;;0.10;0.10;;;1.90;99.90;230.40;231737.00;;;;5032207;28;20302;-74
2023/03/06 03:34:30;;;;;;;0.10;0.10;;;1.80;99.90;230.40;231737.00;;;;5011307;28;20270;-74
2023/03/06 03:36:58;;;;;;;0.10;0.10;;;1.90;99.90;230.40;231737.00;;;;5009170;28;20215;-74
2023/03/06 03:39:26;;;;;;;0.10;0.10;;;1.80;99.90;230.40;231737.00;;;;5006741;28;20249;-76
2023/03/06 03:41:54;;;;;;;0.10;0.10;;;1.80;99.90;230.40;231737.00;;;;5008942;28;20223;-75
2023/03/06 03:44:23;;;;;;;0.10;0.10;;;1.80;99.90;230.40;231737.00;;;;5023623;28;20206;-75
2023/03/06 03:46:51;;;;;;;0.10;0.10;;;1.80;99.90;230.40;231737.00;;;;5029731;28;20744;-74
2023/03/06 03:49:22;;;;;;;0.10;0.10;;;1.80;99.90;230.40;231737.00;;;;5028929;28;20206;-74
2023/03/06 03:51:52;;;;;;;0.10;0.10;;;1.80;99.90;230.40;231737.00;;;;5011354;28;20558;-75
2023/03/06 03:54:22;;;;;;;0.10;0.10;;;1.80;99.90;230.40;231737.00;;;;5019265;28;20192;-75
2023/03/06 03:56:52;;;;;;;0.13;0.13;;;1.80;99.90;230.40;231737.00;;;;5035651;28;20207;-74
2023/03/06 03:59:27;;;;;;;0.10;0.10;;;1.90;99.90;230.40;231737.00;;;;5027667;28;20196;-75
2023/03/06 04:02:06;;;;;;;0.10;0.10;;;1.90;99.90;230.40;231737.00;;;;5011409;28;20218;-75
2023/03/06 04:04:41;;;;;;;0.10;0.10;;;2.00;99.90;230.40;231737.00;;;;5033381;28;20196;-75
2023/03/06 04:07:12;;;;;;;0.10;0.10;;;2.00;99.90;230.40;231737.00;;;;5012002;28;20577;-74
2023/03/06 04:09:41;;;;;;;0.10;0.10;;;1.90;99.90;230.40;231737.00;;;;5015097;28;20690;-74
2023/03/06 04:12:09;;;;;;;0.10;0.10;;;1.90;99.90;230.40;231737.00;;;;5021647;28;20269;-74
2023/03/06 04:14:38;;;;;;;0.10;0.10;;;1.80;99.90;230.40;231737.00;;;;5007274;28;20199;-74
2023/03/06 04:17:06;;;;;;;0.10;0.10;;;1.80;99.90;230.40;231737.00;;;;5008038;28;20207;-74
2023/03/06 04:19:34;;;;;;;0.10;0.10;;;1.80;99.90;230.40;231737.00;;;;5014274;28;20203;-74
2023/03/06 04:22:02;;;;;;;0.10;0.10;;;1.90;99.90;230.40;231737.00;;;;5013076;28;20216;-75
2023/03/06 04:24:33;;;;;;;0.10;0.10;;;1.90;99.90;230.40;231737.00;;;;5014592;28;20192;-74
2023/03/06 04:27:02;;;;;;;0.10;0.10;;;1.90;99.90;230.40;231737.00;;;;5012544;28;20300;-74
2023/03/06 04:29:31;;;;;;;0.10;0.10;;;1.90;99.90;230.40;231737.00;;;;5029224;28;20675;-74
2023/03/06 04:31:59;;;;;;;0.10;0.10;;;1.80;99.90;230.40;231737.00;;;;5021013;28;20276;-74
2023/03/06 04:34:27;;;;;;;0.10;0.10;;;1.80;99.90;230.40;231737.00;;;;5009895;28;20324;-74
2023/03/06 04:36:55;;;;;;;0.10;0.10;;;1.80;99.90;230.40;231737.00;;;;5012416;28;20294;-74
2023/03/06 04:39:23;;;;;;;0.10;0.10;;;1.80;99.90;230.40;231737.00;;;;5012461;28;20287;-74
2023/03/06 04:41:52;;;;;;;0.10;0.10;;;1.80;99.90;230.40;231737.00;;;;5011934;28;20216;-75
2023/03/06 04:44:20;;;;;;;0.10;0.10;;;1.80;99.90;230.40;231737.00;;;;5014256;28;20196;-74
2023/03/06 04:46:48;;;;;;;0.10;0.10;;;1.80;99.90;230.40;231737.00;;;;5013815;28;20224;-75
2023/03/06 04:49:16;;;;;;;0.10;0.10;;;1.80;99.90;230.40;231737.00;;;;5020223;28;20705;-75
2023/03/06 04:51:44;;;;;;;0.10;0.10;;;1.90;99.90;230.40;231737.00;;;;5017200;28;20219;-75
2023/03/06 04:54:12;;;;;;;0.10;0.10;;;1.90;99.90;230.40;231737.00;;;;5013287;28;20204;-75
2023/03/06 04:56:40;;;;;;;0.10;0.10;;;2.00;99.90;230.40;231737.00;;;;5013944;28;20202;-73
2023/03/06 04:59:09;;;;;;;0.10;0.10;;;2.00;99.90;230.40;231737.00;;;;5015667;28;20249;-74
2023/03/06 05:01:38;;;;;;;0.10;0.10;;;2.00;99.90;230.40;231737.00;;;;5018600;28;20215;-74
2023/03/06 05:04:06;;;;;;;0.10;0.10;;;2.00;99.90;230.40;231737.00;;;;5013765;28;20223;-74
2023/03/06 05:06:34;;;;;;;0.10;0.10;;;2.10;99.90;230.40;231737.00;;;;5019177;28;20683;-74
2023/03/06 05:09:02;;;;;;;0.20;0.20;;;2.20;99.90;230.40;231737.00;;;;5015917;28;20195;-73
2023/03/06 05:11:30;;;;;;;0.10;0.10;;;2.20;99.90;230.40;231737.00;;;;5016163;28;20246;-74
2023/03/06 05:13:58;;;;;;;0.10;0.10;;;2.20;99.90;230.40;231737.00;;;;5026223;28;20747;-76
2023/03/06 05:16:27;;;;;;;0.10;0.10;;;2.20;99.90;230.40;231737.00;;;;5014025;28;20250;-74
2023/03/06 05:18:55;;;;;;;0.10;0.10;;;2.20;99.90;230.40;231737.00;;;;5013099;28;20206;-74
2023/03/06 05:21:23;;;;;;;0.10;0.10;;;2.10;99.90;230.40;231737.00;;;;5013400;28;20219;-74
2023/03/06 05:23:51;;;;;;;0.10;0.10;;;2.10;99.90;230.40;231737.00;;;;5012107;28;20722;-74
2023/03/06 05:26:20;;;;;;;0.10;0.10;;;2.10;99.90;230.40;231737.00;;;;5010690;28;20203;-74
2023/03/06 05:28:47;;;;;;;0.10;0.10;;;2.10;99.90;230.40;231737.00;;;;5024530;28;20253;-75
2023/03/06 05:31:16;;;;;;;0.10;0.10;;;2.10;99.90;230.40;231737.00;;;;5017364;28;20722;-74
2023/03/06 05:33:45;;;;;;;0.10;0.10;;;2.10;99.90;230.40;231737.00;;;;5013328;28;20200;-74
2023/03/06 05:36:13;;;;;;;0.10;0.10;;;2.10;99.90;230.40;231737.00;;;;5012182;28;20204;-74
2023/03/06 05:38:41;;;;;;;0.10;0.10;;;2.00;99.90;230.40;231737.00;;;;5013387;28;20254;-74
2023/03/06 05:41:11;;;;;;;0.10;0.10;;;2.00;99.90;230.40;231737.00;;;;5021110;28;20603;-75
2023/03/06 05:43:40;;;;;;;0.10;0.10;;;2.00;99.90;230.40;231737.00;;;;5011833;28;20265;-74
2023/03/06 05:46:10;;;;;;;0.10;0.10;;;2.00;99.90;230.40;231737.00;;;;5012955;28;20262;-74
2023/03/06 05:48:38;;;;;;;0.10;0.10;;;1.90;99.90;230.40;231737.00;;;;5014756;28;20227;-74
2023/03/06 05:51:07;;;;;;;0.10;0.10;;;1.90;99.90;230.40;231737.00;;;;5013671;28;20268;-74
2023/03/06 05:53:35;;;;;;;0.10;0.10;;;1.90;99.90;230.40;231737.00;;;;5014164;28;20199;-74
2023/03/06 05:56:07;;;;;;;0.10;0.10;;;1.90;99.90;230.40;231737.00;;;;5012015;28;20334;-73
2023/03/06 05:58:36;;;;;;;0.10;0.10;;;1.90;99.90;230.40;231737.00;;;;5012745;28;20195;-74
2023/03/06 06:01:10;;;;;;;0.10;0.10;;;2.00;99.90;230.40;231737.00;;;;5014985;28;20219;-74
2023/03/06 06:03:38;;;;;;;0.10;0.10;;;2.00;99.90;230.40;231737.00;;;;5014845;28;20251;-75
2023/03/06 06:06:10;;;;;;;0.10;0.10;;;2.00;99.90;230.40;231737.00;;;;5013700;28;20218;-74
2023/03/06 06:08:38;;;;;;;0.10;0.10;;;2.10;99.90;230.40;231737.00;;;;5012437;28;20204;-74
2023/03/06 06:11:08;;;;;;;0.10;0.10;;;2.10;99.90;230.40;231737.00;;;;5018861;28;22506;-73
2023/03/06 06:13:37;;;;;;;0.10;0.10;;;2.10;99.90;230.40;231737.00;;;;5017952;28;20214;-74
2023/03/06 06:16:10;;;;;;;0.10;0.10;;;2.10;99.90;230.40;231737.00;;;;5016588;28;20540;-75
2023/03/06 06:18:39;;;;;;;0.10;0.10;;;2.10;99.90;230.40;231737.00;;;;5007986;28;20199;-75
2023/03/06 06:21:13;;;;;;;0.10;0.10;;;2.10;99.90;230.40;231737.00;;;;5012478;28;20652;-74
2023/03/06 06:23:41;;;;;;;0.10;0.10;;;2.10;99.90;230.40;231737.00;;;;5008159;28;20215;-75
2023/03/06 06:26:10;;;;;;;0.10;0.10;;;2.10;99.90;230.40;231737.00;;;;5012282;28;20662;-74
2023/03/06 06:28:38;;;;;;;0.10;0.10;;;2.10;99.90;230.40;231737.00;;;;5012494;28;20191;-74
2023/03/06 06:31:11;;;;;;;0.10;0.10;;;2.10;99.90;230.40;231737.00;;;;5027364;28;20223;-74
2023/03/06 06:33:39;;;;;;;0.10;0.10;;;2.10;99.90;230.40;231737.00;;;;5012409;28;20262;-74
2023/03/06 06:36:17;;;;;;;0.10;0.10;;;2.10;99.90;230.40;231737.00;;;;5011999;28;20203;-74
2023/03/06 06:38:45;;;;;;;0.10;0.10;;;2.10;99.90;230.40;231737.00;;;;5012690;28;20211;-73
2023/03/06 06:41:13;;;;;;;0.10;0.10;;;2.10;99.90;230.40;231737.00;;;;5005376;28;20572;-73
2023/03/06 06:44:06;;;;;;;0.10;0.10;;;2.00;99.90;230.40;231737.00;;;;5011610;28;20302;-74
2023/03/06 06:46:36;;;;;;;0.10;0.10;;;2.00;99.90;230.40;231737.00;;;;5013022;28;20288;-73
2023/03/06 06:49:24;;;;;;;0.10;0.10;;;2.00;99.90;230.40;231737.00;;;;5013104;28;20625;-74
2023/03/06 06:51:53;;;;;;;0.10;0.10;;;2.00;99.90;230.40;231737.00;;;;5050137;22;20234;-73
2023/03/06 06:54:21;;;;;;;0.10;0.10;;;2.00;99.90;230.40;231737.00;;;;5028223;28;20211;-73
2023/03/06 06:56:49;;;;;;;0.10;0.10;;;2.00;99.90;230.40;231737.00;;;;5031942;28;20210;-73
2023/03/06 06:59:17;;;;;;;0.20;0.20;;;2.00;99.90;230.40;231737.00;;;;5024035;28;20217;-73
2023/03/06 07:01:45;;;;;;;0.10;0.10;;;1.90;99.90;230.40;231737.00;;;;5015772;28;20265;-73
2023/03/06 07:04:14;;;;;;;0.10;0.10;;;1.90;99.90;230.40;231737.00;;;;5006020;28;20686;-73
2023/03/06 07:06:42;;;;;;;0.10;0.10;;;1.90;99.90;230.40;231737.00;;;;5008042;28;20222;-73
2023/03/06 07:09:13;;;;;;;0.10;0.10;;;1.90;99.90;230.40;231737.00;;;;5011940;28;20207;-73
2023/03/06 07:11:42;;;;;;;0.10;0.10;;;1.90;99.90;230.40;231737.00;;;;5011881;28;20219;-73
2023/03/06 07:14:10;;;;;;;0.10;0.10;;;1.90;99.90;230.40;231737.00;;;;5010615;28;20270;-73
2023/03/06 07:16:38;;;;;;;0.10;0.10;;;1.90;99.90;230.40;231737.00;;;;5011629;28;20258;-73
2023/03/06 07:19:07;;;;;;;0.10;0.10;;;1.90;99.90;230.40;231737.00;;;;5011839;28;20712;-73
2023/03/06 07:21:35;;;;;;;0.10;0.10;;;1.90;99.90;230.40;231737.00;;;;5011871;28;20239;-73
2023/03/06 07:24:03;;;;;;;0.10;0.10;;;1.80;99.90;230.40;231737.00;;;;5011781;28;20239;-74
2023/03/06 07:26:32;;;;;;;0.10;0.10;;;1.80;99.90;230.40;231737.00;;;;5011613;28;20655;-73
2023/03/06 07:29:02;;;;;;;0.10;0.10;;;1.80;99.90;230.40;231737.00;;;;5011584;28;20207;-73
2023/03/06 07:31:30;;;;;;;0.10;0.10;;;1.80;99.90;230.40;231737.00;;;;5011276;28;20229;-74
2023/03/06 07:33:58;;;;;;;0.10;0.10;;;1.80;99.90;230.40;231737.00;;;;5027045;28;20214;-72
2023/03/06 07:36:27;;;;;;;0.10;0.10;;;1.80;99.90;230.40;231737.00;;;;5011304;28;20282;-73
2023/03/06 07:38:55;;;;;;;0.10;0.10;;;1.80;99.90;230.40;231737.00;;;;5011349;28;20528;-73
2023/03/06 07:41:23;;;;;;;0.10;0.10;;;1.90;99.90;230.40;231737.00;;;;5011401;28;20211;-73
2023/03/06 07:43:53;;;;;;;0.15;0.15;;;1.90;99.90;230.40;231737.00;;;;5011789;28;20262;-73
2023/03/06 07:46:21;;;;;;;0.10;0.10;;;1.90;99.90;230.40;231737.00;;;;5012066;28;20199;-72
2023/03/06 07:48:49;;;;;;;0.10;0.10;;;1.90;99.90;230.40;231737.00;;;;5011601;28;20204;-73
2023/03/06 07:51:21;;;;;;;0.03;0.03;;;1.90;99.90;230.40;231737.00;;;;5015732;28;20238;-73
2023/03/06 07:53:50;;;;;;;0.10;0.10;;;2.00;99.90;230.40;231737.00;;;;5033666;28;20203;-73
2023/03/06 07:56:18;;;;;;;0.10;0.10;;;2.00;99.90;230.40;231737.00;;;;5018605;28;20214;-73
2023/03/06 07:58:47;;;;;;;0.10;0.10;;;1.90;99.90;230.40;231737.00;;;;5018268;28;20219;-73
2023/03/06 08:01:19;;;;;;;0.10;0.10;;;1.90;99.90;230.40;231737.00;;;;5007110;28;20203;-73
2023/03/06 08:03:48;;;;;;;0.10;0.10;;;2.00;99.90;230.40;231737.00;;;;5015581;28;20188;-73
2023/03/06 08:06:19;;;;;;;0.10;0.10;;;1.90;99.90;230.40;231737.00;;;;5016189;28;20250;-73
2023/03/06 08:08:49;;;;;;;0.10;0.10;;;1.90;99.90;230.40;231737.00;;;;5009474;28;20211;-73
2023/03/06 08:11:20;;;;;;;0.10;0.10;;;1.90;99.90;230.40;231737.00;;;;5014631;28;20700;-73
2023/03/06 08:13:51;;;;;;;0.10;0.10;;;1.80;99.90;230.40;231737.00;;;;5015619;28;20572;-73
2023/03/06 08:16:22;;;;;;;0.10;0.10;;;1.90;99.90;230.40;231737.00;;;;5014887;28;20200;-73
2023/03/06 08:18:51;;;;;;;0.10;0.10;;;1.90;99.90;230.40;231737.00;;;;5013707;28;20208;-73
2023/03/06 08:21:22;;;;;;;0.10;0.10;;;1.90;99.90;230.40;231737.00;;;;5017190;28;20274;-73
2023/03/06 08:23:51;;;;;;;0.10;0.10;;;2.00;99.90;230.40;231737.00;;;;5016479;28;20556;-73
2023/03/06 08:26:22;;;;;;;0.10;0.10;;;2.00;99.90;230.40;231737.00;;;;5015776;28;20195;-73
2023/03/06 08:28:51;;;;;;;0.10;0.10;;;2.00;99.90;230.40;231737.00;;;;5019112;28;20217;-73
2023/03/06 08:31:27;;;;;;;0.10;0.10;;;2.00;99.90;230.40;231737.00;;;;5013872;28;20219;-73
2023/03/06 08:33:59;;;;;;;0.10;0.10;;;2.10;99.90;230.40;231737.00;;;;5014681;28;20666;-73
2023/03/06 08:36:27;;;;;;;0.10;0.10;;;2.20;99.90;230.40;231737.00;;;;5022503;28;20199;-73
2023/03/06 08:38:56;;;;;;;0.10;0.10;;;2.20;99.90;230.40;231737.00;;;;5010423;28;20230;-74
2023/03/06 08:41:24;;;;;;;0.10;0.10;;;2.20;99.90;230.40;231737.00;;;;5013444;28;20595;-74
2023/03/06 08:43:53;;;;;;;0.10;0.10;;;2.30;99.90;230.40;231737.00;;;;5015957;28;20204;-74
2023/03/06 08:46:25;;;;;;;0.10;0.10;;;2.40;99.90;230.40;231737.00;;;;5010450;28;20227;-74
2023/03/06 08:48:54;;;;;;;0.10;0.10;;;2.40;99.90;230.40;231737.00;;;;5012153;28;20254;-74
2023/03/06 08:51:23;;;;;;;0.10;0.10;;;2.50;99.90;230.40;231737.00;;;;5014338;28;20793;-74
2023/03/06 08:53:52;;;;;;;0.10;0.10;;;2.50;99.90;230.40;231737.00;;;;5014233;28;20286;-74
2023/03/06 08:56:23;;;;;;;0.00;0.00;;;2.50;99.90;230.40;231737.00;;;;5008049;28;20240;-75
2023/03/06 08:58:52;;;;;;;0.10;0.10;;;2.50;99.90;230.40;231737.00;;;;5012761;28;20214;-74
2023/03/06 09:01:25;;;;;;;0.10;0.10;;;2.60;99.90;230.40;231737.00;;;;5014057;28;20238;-74
2023/03/06 09:03:56;;;;;;;0.10;0.10;;;2.60;99.90;230.40;231737.00;;;;5013042;28;20662;-74
2023/03/06 09:06:27;;;;;;;0.10;0.10;;;2.60;99.90;230.40;231737.00;;;;5013739;28;20223;-74
2023/03/06 09:08:55;;;;;;;0.10;0.10;;;2.60;99.90;230.40;231737.00;;;;5013723;28;20204;-74
2023/03/06 09:11:26;;;;;;;0.10;0.10;;;2.60;99.90;230.40;231737.00;;;;5012553;28;20231;-74
2023/03/06 09:13:56;;;;;;;0.10;0.10;;;2.60;99.90;230.40;231737.00;;;;5014131;28;20195;-74
2023/03/06 09:16:26;;;;;;;0.10;0.10;;;2.50;99.90;230.40;231737.00;;;;5012315;28;20678;-74
2023/03/06 09:18:54;;;;;;;0.10;0.10;;;2.50;99.90;230.40;231737.00;;;;5021325;28;20195;-74
2023/03/06 09:21:23;;;;;;;0.10;0.10;;;2.60;99.90;230.40;231737.00;;;;5013500;28;20218;-74
2023/03/06 09:23:52;;;;;;;0.10;0.10;;;2.60;99.90;230.40;231737.00;;;;5010575;28;20600;-74
2023/03/06 09:26:20;;;;;;;0.10;0.10;;;2.60;99.90;230.40;231737.00;;;;5014333;28;20250;-74
2023/03/06 09:28:50;;;;;;;0.10;0.10;;;2.60;99.90;230.40;231737.00;;;;5007520;28;20199;-74
2023/03/06 09:31:20;;;;;;;0.10;0.10;;;2.60;99.90;230.40;231737.00;;;;5014534;28;20281;-74
2023/03/06 09:33:49;;;;;;;0.10;0.10;;;2.60;99.90;230.40;231737.00;;;;5018930;28;20274;-74
2023/03/06 09:36:21;;;;;;;0.10;0.10;;;2.60;99.90;230.40;231737.00;;;;5013778;28;20204;-74
2023/03/06 09:38:50;;;;;;;0.10;0.10;;;2.50;99.90;230.40;231737.00;;;;5013353;28;20195;-74
2023/03/06 09:41:28;;;;;;;0.10;0.10;;;2.50;99.90;230.40;231737.00;;;;5013349;28;20207;-74
2023/03/06 09:44:04;;;;;;;0.10;0.10;;;2.50;99.90;230.40;231737.00;;;;5011784;28;20206;-74
2023/03/06 09:46:58;;;;;;;0.10;0.10;;;2.50;99.90;230.40;231737.00;;;;5011578;28;20322;-74
2023/03/06 09:49:46;;;;;;;0.10;0.10;;;2.60;99.90;230.40;231737.00;;;;5011100;28;20200;-74
2023/03/06 09:52:31;;;;;;;0.10;0.10;;;2.60;99.90;230.40;231737.00;;;;5025278;28;20214;-74
2023/03/06 09:55:10;;;;;;;0.10;0.10;;;2.60;99.90;230.40;231737.00;;;;5009874;28;20207;-74
2023/03/06 09:57:49;;;;;;;0.10;0.10;;;2.60;99.90;230.40;231737.00;;;;5010345;28;20226;-74
2023/03/06 10:00:26;;;;;;;0.10;0.10;;;2.70;99.90;230.40;231737.00;;;;5008085;28;20546;-74
2023/03/06 10:03:07;;;;;;;0.10;0.10;;;2.70;99.90;230.40;231737.00;;;;5010229;28;20266;-74
2023/03/06 10:05:42;;;;;;;0.10;0.10;;;2.70;99.90;230.40;231737.00;;;;5009311;28;20220;-73
2023/03/06 10:08:23;;;;;;;0.10;0.10;;;2.70;99.90;230.40;231737.00;;;;5016199;28;20670;-73
2023/03/06 10:11:01;;;;;;;0.10;0.10;;;2.70;99.90;230.40;231737.00;;;;5016614;28;20251;-74
2023/03/06 10:13:38;;;;;;;0.10;0.10;;;2.70;99.90;230.40;231737.00;;;;5008375;28;20246;-73
2023/03/06 10:16:25;;;;;;;0.10;0.10;;;2.70;99.90;230.40;231737.00;;;;5014141;28;20567;-73
2023/03/06 10:18:56;;;;;;;0.10;0.10;;;2.70;99.90;230.40;231737.00;;;;5011572;28;20200;-73
2023/03/06 10:21:42;;;;;;;0.10;0.10;;;2.60;99.90;230.40;231737.00;;;;5013311;28;20302;-74
2023/03/06 10:24:25;;;;;;;0.10;0.10;;;2.70;99.90;230.40;231737.00;;;;5012999;28;20203;-73
2023/03/06 10:27:02;;;;;;;0.10;0.10;;;2.70;99.90;230.40;231737.00;;;;5011223;28;20282;-74
2023/03/06 10:29:51;;;;;;;0.10;0.10;;;2.70;99.90;230.40;231737.00;;;;5012473;28;20282;-74
2023/03/06 10:32:41;;;;;;;0.10;0.10;;;2.70;99.90;230.40;231737.00;;;;5006866;28;20195;-73
2023/03/06 10:35:21;;;;;;;0.10;0.10;;;2.70;99.90;230.40;231737.00;;;;5008285;28;20700;-73
2023/03/06 10:37:50;;;;;;;0.10;0.10;;;2.70;99.90;230.40;231737.00;;;;5012069;28;20226;-73
2023/03/06 10:40:22;;;;;;;0.10;0.10;;;2.70;99.90;230.40;231737.00;;;;5012488;28;20223;-74
2023/03/06 10:42:50;;;;;;;0.10;0.10;;;2.80;99.90;230.40;231737.00;;;;5012262;28;20212;-73
2023/03/06 10:45:48;;;;;;;0.10;0.10;;;2.80;99.90;230.40;231737.00;;;;5012290;28;20242;-72
2023/03/06 10:48:22;;;;;;;0.10;0.10;;;2.90;99.90;230.40;231737.00;;;;5003114;28;20206;-72
2023/03/06 10:50:52;;;;;;;0.10;0.10;;;2.90;99.90;230.40;231737.00;;;;5017347;28;20330;-73
2023/03/06 10:53:28;;;;;;;0.10;0.10;;;2.90;99.90;230.40;231737.00;;;;5012997;28;20208;-73
2023/03/06 10:55:58;;;;;;;0.10;0.10;;;3.00;99.90;230.40;231737.00;;;;5012230;28;20652;-73
2023/03/06 10:58:29;;;;;;;0.10;0.10;;;3.00;99.90;230.40;231737.00;;;;5012624;28;20192;-74
2023/03/06 11:01:06;;;;;;;0.10;0.10;;;3.00;99.90;230.40;231737.00;;;;5012104;28;20275;-73
2023/03/06 11:03:36;;;;;;;0.10;0.10;;;2.90;99.90;230.40;231737.00;;;;5011588;28;20210;-73